Flight Track Log - Related Links

Times and Time Zones

All times are in EDT time to prevent confusion due to time zone crossing. See the N1250V flight status page for this flight to view local times or setup timezone preferences in your user account.

Time Position Orientation Groundspeed Altitude Reporting Facility
EDT Latitude Longitude Course Direction KTS km/h feet Rate Location/Type
Tue 09:52:56 39.0833 -84.4167 159° South 139 257 1.100  Level Cincinnati TRACON
Tue 09:54:32 39.0167 -84.3833 159° South 221 409 3.400 1.542 Climbing Cincinnati TRACON
Tue 09:55:20 38.9667 -84.3500 153° Southeast 230 426 4.800 833 Climbing Cincinnati TRACON
Tue 09:56:20 38.9333 -84.2667 117° Southeast 248 459 4.900 356 Climbing Cincinnati TRACON
Tue 09:57:01 38.9228 -84.2292 110° East 249 462 5.400 1.631 Climbing Indianapolis Center
Tue 09:58:03 38.9033 -84.1447 106° East 247 457 7.700 2.016 Climbing Indianapolis Center
Tue 09:59:06 38.8883 -84.0606 103° East 242 447 9.600 1.776 Climbing Indianapolis Center
Tue 10:00:08 38.8714 -83.9758 104° East 243 451 11.400 1.839 Climbing Indianapolis Center
Tue 10:01:10 38.8528 -83.8722 103° East 254 470 13.400 1.742 Climbing Indianapolis Center
Tue 10:02:12 38.8289 -83.7886 110° East 252 467 15.000 1.548 Climbing Indianapolis Center
Tue 10:03:14 38.8019 -83.7028 112° Southeast 257 476 16.600 1.548 Climbing Indianapolis Center
Tue 10:04:16 38.7833 -83.6133 105° East 258 478 18.200 1.161 Climbing Indianapolis Center
Tue 10:05:18 38.7639 -83.5219 105° East 264 489 19.000 581 Climbing Indianapolis Center
Tue 10:06:20 38.7400 -83.4136 106° East 309 573 19.400 629 Climbing Indianapolis Center
Tue 10:07:22 38.7150 -83.3006 106° East 325 602 20.300 919 Climbing Indianapolis Center
Tue 10:08:24 38.6864 -83.1692 106° East 327 605 21.300 871 Climbing Indianapolis Center
Tue 10:09:26 38.6636 -83.0675 106° East 328 607 22.100 871 Climbing Indianapolis Center
Tue 10:10:28 38.6494 -82.9544 99° East 325 602 23.100 968 Climbing Indianapolis Center
Tue 10:11:30 38.6892 -82.8256 68° East 327 605 24.100 968 Climbing Indianapolis Center
Tue 10:12:32 38.7222 -82.7192 68° East 322 597 25.100 919 Climbing Indianapolis Center
Tue 10:13:34 38.7553 -82.6125 68° East 322 597 26.000 919 Climbing Indianapolis Center
Tue 10:14:36 38.7878 -82.5072 68° East 317 587 27.000 919 Climbing Indianapolis Center
Tue 10:15:38 38.8192 -82.4036 69° East 314 581 27.900 871 Climbing Indianapolis Center
Tue 10:16:40 38.8503 -82.3003 69° East 311 576 28.800 726 Climbing Indianapolis Center
Tue 10:17:42 38.8825 -82.1953 68° East 313 579 29.400 629 Climbing Indianapolis Center
Tue 10:18:44 38.9203 -82.0681 69° East 318 589 30.100 629 Climbing Indianapolis Center
Tue 10:19:46 38.9528 -81.9606 69° East 321 594 30.700 629 Climbing Indianapolis Center
Tue 10:20:48 38.9850 -81.8522 69° East 323 599 31.400 629 Climbing Indianapolis Center
Tue 10:21:50 39.0172 -81.7456 69° East 320 592 32.000 581 Climbing Indianapolis Center
Tue 10:22:52 39.0486 -81.6389 69° East 317 587 32.600 484 Climbing Indianapolis Center
Tue 10:23:54 39.0797 -81.5325 69° East 317 587 33.000 192 Climbing Indianapolis Center
Tue 10:24:57 39.1131 -81.4222 69° East 323 599 33.000  Level Indianapolis Center
Tue 10:25:59 39.1456 -81.3069 70° East 337 624 33.000  Level Indianapolis Center
Tue 10:27:01 39.1867 -81.1658 69° East 348 644 33.000  Level Indianapolis Center
Tue 10:28:03 39.2211 -81.0472 69° East 351 650 33.000  Level Indianapolis Center
Tue 10:29:05 39.2561 -80.9278 69° East 354 655 33.000  Level Indianapolis Center
Tue 10:30:07 39.2894 -80.8072 70° East 355 658 33.000  Level Indianapolis Center
Tue 10:31:09 39.3242 -80.6864 70° East 356 660 33.000  Level Indianapolis Center
Tue 10:32:11 39.3586 -80.5658 70° East 356 660 33.000  Level Indianapolis Center
Tue 10:33:13 39.3925 -80.4442 70° East 359 665 33.000  Level Indianapolis Center
Tue 10:34:14 39.4339 -80.2978 70° East 360 666 33.000  Level Indianapolis Center
Tue 10:35:16 39.4678 -80.1761 70° East 359 665 33.000  Level Indianapolis Center
Tue 10:36:18 39.5019 -80.0525 70° East 362 671 33.000  Level Indianapolis Center
Tue 10:37:23 39.5381 -79.9289 69° East 348 644 33.000  Level Cleveland Center
Tue 10:38:23 39.5683 -79.8075 72° East 348 644 33.000  Level Cleveland Center
Tue 10:39:23 39.5883 -79.6808 78° East 348 644 33.000  Level Cleveland Center
Tue 10:40:23 39.6103 -79.5539 77° East 354 655 33.000  Level Cleveland Center
Tue 10:41:23 39.6339 -79.4267 76° East 354 655 33.000  Level Cleveland Center
Tue 10:42:23 39.6597 -79.3022 75° East 354 655 33.000  Level Cleveland Center
Tue 10:43:23 39.6875 -79.1775 74° East 354 655 33.000  Level Cleveland Center
Tue 10:45:23 39.7464 -78.9064 74° East 364 674 33.000  Level Cleveland Center
Tue 10:46:23 39.7714 -78.7789 76° East 364 674 33.000  Level Cleveland Center
Tue 10:47:23 39.7944 -78.6539 76° East 358 663 33.000  Level Cleveland Center
Tue 10:48:23 39.8192 -78.5261 76° East 358 663 33.000  Level Cleveland Center
Tue 10:49:23 39.8461 -78.3983 75° East 358 663 33.000  Level Cleveland Center
Tue 10:51:18 39.8967 -78.1611 74° East 359 665 33.000  Level New York Center
Tue 10:52:15 39.9231 -78.0367 75° East 359 665 33.000  Level New York Center
Tue 10:53:16 39.9456 -77.9089 77° East 359 665 33.000  Level New York Center
Tue 10:54:16 39.9719 -77.7817 75° East 354 655 33.000  Level New York Center
Tue 10:55:17 39.9981 -77.6542 75° East 354 655 33.000  Level New York Center
Tue 10:56:15 40.0219 -77.5317 76° East 354 655 33.000  Level New York Center
Tue 10:57:15 40.0458 -77.4039 76° East 354 655 33.000  Level New York Center
Tue 10:58:17 40.0717 -77.2761 75° East 354 655 33.000  Level New York Center
Tue 10:59:16 40.1056 -77.1544 70° East 354 655 33.000  Level New York Center
Tue 11:00:17 40.1383 -77.0486 68° East 354 655 33.000  Level New York Center
Tue 11:01:15 40.1658 -76.9233 74° East 354 655 33.000  Level New York Center
Tue 11:02:16 40.1886 -76.8006 76° East 354 655 33.000  Level New York Center
Tue 11:03:16 40.2119 -76.6692 77° East 354 655 33.000  Level New York Center
Tue 11:04:17 40.2347 -76.5461 76° East 354 655 33.000  Level New York Center
Tue 11:05:17 40.2578 -76.4147 77° East 354 655 33.000  Level New York Center
Tue 11:06:18 40.2803 -76.2942 76° East 354 655 33.000  Level New York Center
Tue 11:07:15 40.3056 -76.1517 77° East 354 655 33.000  Level New York Center
Tue 11:08:16 40.3281 -76.0200 77° East 354 655 33.000  Level New York Center
Tue 11:09:16 40.3525 -75.8939 76° East 354 655 33.000  Level New York Center
Tue 11:10:16 40.3725 -75.7675 78° East 354 655 33.000  Level New York Center
Tue 11:11:18 40.3919 -75.6489 78° East 354 655 33.000  Level New York Center
Tue 11:12:15 40.4139 -75.5222 77° East 354 655 33.000  Level New York Center
Tue 11:13:15 40.4361 -75.3792 78° East 354 655 33.000  Level New York Center
Tue 11:14:16 40.4597 -75.2528 76° East 359 665 33.000  Level New York Center
Tue 11:15:17 40.4789 -75.1367 78° East 364 674 33.000  Level New York Center
Tue 11:16:15 40.5022 -75.0042 77° East 364 674 33.000  Level New York Center
Tue 11:17:16 40.5236 -74.8772 77° East 364 674 33.000  Level New York Center
Tue 11:18:16 40.5469 -74.7367 78° East 364 674 33.000  Level New York Center
Tue 11:19:17 40.5656 -74.6175 78° East 364 674 33.000  Level New York Center
Tue 11:20:17 40.5889 -74.4767 78° East 364 674 33.000  Level New York Center
Tue 11:21:16 40.6069 -74.3603 78° East 371 687 33.000  Level New York Center
Tue 11:23:19 40.5900 -74.0769 94° East 357 661 33.000  Level Boston Center
Tue 11:24:19 40.5794 -73.9456 96° East 357 661 33.000  Level Boston Center
Tue 11:25:19 40.5686 -73.8142 96° East 363 673 33.000  Level Boston Center
Tue 11:26:19 40.5556 -73.6803 97° East 368 681 33.000  Level Boston Center
Tue 11:27:19 40.5589 -73.5492 88° East 368 681 33.000  Level Boston Center
Tue 11:28:19 40.5956 -73.4322 68° East 356 660 33.000  Level Boston Center
Tue 11:29:19 40.6214 -73.3042 75° East 351 650 33.000  Level Boston Center
Tue 11:30:19 40.6475 -73.1786 75° East 351 650 33.000 -50 Level Boston Center
Tue 11:31:19 40.6711 -73.0558 76° East 351 650 32.900 -650 Descending Boston Center
Tue 11:32:19 40.6989 -72.9272 74° East 351 650 31.700 -1.350 Descending Boston Center
Tue 11:33:19 40.7244 -72.7850 77° East 368 681 30.200 -1.450 Descending Boston Center
Tue 11:34:19 40.7600 -72.6428 72° East 388 719 28.800 -1.450 Descending Boston Center
Tue 11:35:19 40.7872 -72.5031 76° East 394 729 27.300 -1.500 Descending Boston Center
Tue 11:36:19 40.8167 -72.3633 74° East 394 729 25.800 -1.450 Descending Boston Center
Tue 11:37:19 40.8414 -72.2317 76° East 378 700 24.400 -1.450 Descending Boston Center
Tue 11:38:19 40.8681 -72.1025 75° East 373 690 22.900 -1.300 Descending Boston Center
Tue 11:39:19 40.8928 -71.9789 75° East 360 666 21.800 -1.150 Descending Boston Center
Tue 11:40:19 40.9150 -71.8606 76° East 344 637 20.600 -1.000 Descending Boston Center
Tue 11:41:19 40.9017 -71.7233 97° East 344 637 19.800 -1.050 Descending Boston Center
Tue 11:42:19 40.8925 -71.6000 96° East 351 650 18.500 -1.350 Descending Boston Center
Tue 11:43:19 40.8978 -71.4708 87° East 357 661 17.100 -1.350 Descending Boston Center
Tue 11:44:19 40.9406 -71.3547 64° Northeast 344 637 15.800 -1.300 Descending Boston Center
Tue 11:45:19 40.9789 -71.2414 66° East 338 626 14.500 -1.250 Descending Boston Center
Tue 11:46:19 41.0175 -71.1472 61° Northeast 330 612 13.300 -1.400 Descending Boston Center
Tue 11:47:19 41.0578 -71.0197 67° East 315 583 11.700 -1.200 Descending Boston Center
Tue 11:48:19 41.0833 -70.9200 71° East 301 557 10.900 -900 Descending Boston Center
Tue 11:49:19 41.0819 -70.8100 91° East 294 544 9.900 -1.100 Descending Boston Center
Tue 11:50:19 41.0822 -70.6969 90° East 294 544 8.700 -1.100 Descending Boston Center
Tue 11:51:19 41.0867 -70.5811 87° East 299 554 7.700 -1.050 Descending Boston Center
Tue 11:52:19 41.0933 -70.4764 85° East 299 554 6.600 -1.250 Descending Boston Center
Tue 11:53:19 41.1125 -70.3875 74° East 286 529 5.200 -1.450 Descending Boston Center
Tue 11:54:19 41.1294 -70.2878 77° East 279 517 3.700 -1.100 Descending Boston Center
Tue 11:55:19 41.1442 -70.1964 78° East 268 496 3.000 -550 Descending Boston Center
Tue 11:56:19 41.1783 -70.1317 55° Northeast 244 452 2.600 -600 Descending Boston Center
Tue 11:57:19 41.2150 -70.0808 46° Northeast 213 394 1.800 -550 Descending Boston Center
Tue 11:58:19 41.2472 -70.0353 47° Northeast 184 341 1.500 -318 Descending Boston Center
Tue 11:59:31 41.2758 -70.0039 40° Northeast 154 285 1.100 -455 Descending Boston Center
Tue 12:00:31 41.2744 -70.0400 267° West 41 76 500 -450 Descending Boston Center
Tue 12:01:31 41.2728 -70.0567 262° West 35 64 200 -300 Descending Boston Center
Tue 12:03:00 41.2500 -70.0500 317° Northwest  Level FlightAware Approximate

Login

Don't have an account? Register now (free) for customized features, flight alerts, and more!